CheckWX is a tool to help pilots better visualize weather data.  It is not intended as a substitute for an official pre-flight weather briefing.

10:16:10 UTC

ZWWW TAF
Ürümqi Diwopu International Airport
Ürümqi, China
TAF ZWWW 260301Z 2606/2706 36004MPS CAVOK TX31/2609Z TN22/2623Z BECMG 2613/2614 18004MPS BECMG 2702/2703 36004MPS

Jun-26@
06:00 UTC

Jun-26 @ 06:00 UTC

Jun-26@
13:00 UTC

Jun-26 @ 13:00 UTC

TAF ZWWW 260301Z 2606/2706 36004MPS CAVOK TX31/2609Z TN22/2623Z
Wind
  • 360° at 8 KTS
Cloud Levels
  • No significant clouds

Jun-26@
13:00 UTC

Jun-26 @ 13:00 UTC

Jun-27@
02:00 UTC

Jun-27 @ 02:00 UTC

BECMG 2613/2614 18004MPS

Becoming

Becoming Conditions expected by Wed, Jun 26, 2019 @ 14:00 UTC

Wind
  • 180° at 8 KTS
Cloud Levels
  • No significant clouds

Jun-27@
02:00 UTC

Jun-27 @ 02:00 UTC

Jun-27@
06:00 UTC

Jun-27 @ 06:00 UTC

BECMG 2702/2703 36004MPS

Becoming

Becoming Conditions expected by Thu, Jun 27, 2019 @ 03:00 UTC

Wind
  • 360° at 8 KTS
Cloud Levels
  • No significant clouds